Terminal Aerodrome Forecast
Issued by NWS Green Bay, WI

Home | Current Version | Previous Version | Graphics & Text | Print | Product List | Glossary On
Versions: 1 2 3 4 5 6 7 8 9 10 11 12 13 14 15 16 17 18 19 20
000
FTUS43 KGRB 191734
TAFGRB
TAF
KGRB 191734Z 1918/2018 33005KT P6SM SCT030
      TEMPO 1918/1919 P6SM BKN015
     FM192200 03010KT P6SM VCSH OVC035
      TEMPO 1922/2001 3SM -TSRA BKN020CB
     FM200100 04013G24KT P6SM OVC035
     FM200800 04011G19KT P6SM BKN050
     FM201400 04010KT P6SM SCT020 BKN150=

USA.gov is the U.S. government's official web portal to all federal, state and local government web resources and services.